Terminal Aerodrome Forecast
Issued by NWS

Home | Current Version | Previous Version | Text Only | Print | Product List | Glossary On
Versions: 1 2 3 4 5 6 7 8 9 10 11 12 13 14 15 16 17 18 19 20
755
FTUS41 KCAR 192320
TAFPQI
TAF
KPQI 192320Z 2000/2024 32007KT P6SM SCT025 OVC060
     FM200400 33006KT P6SM VCSH BKN025
     FM201300 33012G22KT P6SM BKN020
     FM202300 24005KT P6SM SKC=

USA.gov is the U.S. government's official web portal to all federal, state and local government web resources and services.